Time,TemperatureF,DewpointF,PressureIn,WindDirection,WindDirectionDegrees,WindSpeedMPH,WindSpeedGustMPH,Humidity,HourlyPrecipIn,Conditions,Clouds,dailyrainin,SoftwareType,DateUTC
2013-06-11 00:00:00,59.5,46.5,29.54,East,89,0.0,0.0,62,2.56,,---,0.00,VWS V13.01,2013-06-11 04:00:00,
2013-06-11 00:19:00,59.7,46.7,29.54,North,6,0.0,0.0,62,1.42,,---,0.35,VWS V13.01,2013-06-11 04:19:00,
2013-06-11 00:39:00,59.7,46.7,29.51,NE,45,0.0,0.0,62,2.28,,---,1.93,VWS V13.01,2013-06-11 04:39:00,
2013-06-11 00:59:00,59.9,47.3,29.51,NE,36,0.0,0.0,63,2.76,,---,2.60,VWS V13.01,2013-06-11 04:59:00,
2013-06-11 01:20:00,59.9,47.3,29.48,ENE,66,0.0,0.0,63,3.35,,---,3.35,VWS V13.01,2013-06-11 05:20:00,
2013-06-11 01:40:00,60.1,47.5,29.48,NNE,16,0.0,0.0,63,3.94,,---,4.29,VWS V13.01,2013-06-11 05:40:00,
2013-06-11 02:00:00,60.1,47.5,29.45,East,85,0.0,0.0,63,2.80,,---,4.72,VWS V13.01,2013-06-11 06:00:00,
2013-06-11 02:19:00,60.3,47.6,29.45,NNE,31,0.0,0.0,63,2.24,,---,4.84,VWS V13.01,2013-06-11 06:19:00,
2013-06-11 02:39:00,60.3,47.6,29.45,NNE,31,0.0,0.0,63,1.65,,---,5.00,VWS V13.01,2013-06-11 06:39:00,
2013-06-11 03:00:00,60.4,48.2,29.45,NNE,31,0.0,0.0,64,0.87,,---,5.16,VWS V13.01,2013-06-11 07:00:00,
2013-06-11 03:20:00,60.4,48.2,29.42,NNE,31,0.0,0.0,64,0.51,,---,5.24,VWS V13.01,2013-06-11 07:20:00,
2013-06-11 03:40:00,60.4,48.2,29.42,NNE,31,0.0,0.0,64,0.43,,---,5.28,VWS V13.01,2013-06-11 07:40:00,
2013-06-11 03:59:00,60.6,48.4,29.42,NNW,335,0.0,0.0,64,0.39,,---,5.39,VWS V13.01,2013-06-11 07:59:00,
2013-06-11 04:19:00,60.6,48.4,29.39,NNW,335,0.0,0.0,64,1.14,,---,6.30,VWS V13.01,2013-06-11 08:19:00,
2013-06-11 04:39:00,60.8,48.6,29.39,NNW,335,0.0,0.0,64,1.26,,---,6.50,VWS V13.01,2013-06-11 08:39:00,
2013-06-11 05:00:00,60.8,48.6,29.39,NNW,335,0.0,0.0,64,1.38,,---,6.65,VWS V13.01,2013-06-11 09:00:00,
2013-06-11 05:20:00,61.0,48.7,29.39,NNW,335,0.0,0.0,64,1.34,,---,6.73,VWS V13.01,2013-06-11 09:20:00,
2013-06-11 05:40:00,61.0,48.7,29.39,NNW,335,0.0,0.0,64,0.47,,---,6.77,VWS V13.01,2013-06-11 09:40:00,
2013-06-11 06:00:00,61.0,48.7,29.39,NNW,335,0.0,0.0,64,0.31,,---,6.81,VWS V13.01,2013-06-11 10:00:00,
2013-06-11 06:20:00,61.0,48.7,29.39,NNW,335,0.0,0.0,64,0.20,,---,6.85,VWS V13.01,2013-06-11 10:20:00,
2013-06-11 06:40:00,61.2,48.9,29.39,NNW,335,0.0,0.0,64,0.12,,---,6.85,VWS V13.01,2013-06-11 10:40:00,
2013-06-11 07:00:00,61.3,49.1,29.39,NNW,335,0.0,0.0,64,0.08,,---,6.85,VWS V13.01,2013-06-11 11:00:00,
2013-06-11 07:19:00,61.5,49.2,29.39,NNW,335,0.0,0.0,64,0.08,,---,6.89,VWS V13.01,2013-06-11 11:19:00,
2013-06-11 07:39:00,61.7,49.4,29.39,NNW,335,0.0,0.0,64,0.04,,---,6.89,VWS V13.01,2013-06-11 11:39:00,
2013-06-11 07:59:00,62.1,49.8,29.39,NNW,335,0.0,0.0,64,0.04,,---,6.89,VWS V13.01,2013-06-11 11:59:00,
2013-06-11 08:19:00,62.4,50.1,29.39,NNW,335,0.0,0.0,64,0.04,,---,6.89,VWS V13.01,2013-06-11 12:19:00,
2013-06-11 08:40:00,63.0,50.6,29.39,NNW,335,0.0,0.0,64,0.00,,---,6.89,VWS V13.01,2013-06-11 12:40:00,
2013-06-11 09:00:00,63.7,50.9,29.39,NNW,335,0.0,0.0,63,0.00,,---,6.89,VWS V13.01,2013-06-11 13:00:00,
2013-06-11 09:20:00,64.0,51.2,29.39,NNW,335,0.0,0.0,63,0.00,,---,6.89,VWS V13.01,2013-06-11 13:20:00,
2013-06-11 09:40:00,65.1,52.2,29.39,NNW,335,0.0,0.0,63,0.00,,---,6.89,VWS V13.01,2013-06-11 13:40:00,
2013-06-11 10:00:00,67.5,54.0,29.39,West,267,0.0,0.0,62,0.00,,---,6.89,VWS V13.01,2013-06-11 14:00:00,
2013-06-11 10:19:00,68.7,54.3,29.36,WNW,285,0.0,0.0,60,0.00,,---,6.89,VWS V13.01,2013-06-11 14:19:00,
2013-06-11 10:40:00,69.4,54.0,29.36,West,260,0.0,3.1,58,0.00,,---,6.89,VWS V13.01,2013-06-11 14:40:00,
2013-06-11 10:59:00,70.3,54.9,29.36,West,262,0.0,2.7,58,0.00,,---,6.89,VWS V13.01,2013-06-11 14:59:00,
2013-06-11 11:19:00,70.9,49.7,29.36,WSW,248,0.0,5.1,47,0.00,,---,6.89,VWS V13.01,2013-06-11 15:19:00,
2013-06-11 11:39:00,72.3,41.6,29.36,SW,232,0.0,3.6,33,0.00,,---,6.89,VWS V13.01,2013-06-11 15:39:00,
2013-06-11 11:59:00,73.4,34.5,29.36,SW,219,0.0,4.5,24,0.00,,---,6.89,VWS V13.01,2013-06-11 15:59:00,
2013-06-11 12:19:00,74.5,34.3,29.33,WSW,257,0.0,3.1,23,0.00,,---,6.89,VWS V13.01,2013-06-11 16:19:00,
2013-06-11 12:39:00,75.2,32.6,29.33,WNW,292,0.0,5.1,21,0.00,,---,6.89,VWS V13.01,2013-06-11 16:39:00,
2013-06-11 13:00:00,75.6,32.9,29.33,WSW,237,0.0,4.0,21,0.00,,---,6.89,VWS V13.01,2013-06-11 17:00:00,
2013-06-11 13:20:00,75.6,32.9,29.33,WSW,255,0.0,2.7,21,0.00,,---,6.89,VWS V13.01,2013-06-11 17:20:00,
2013-06-11 13:40:00,75.2,32.6,29.30,WSW,253,0.0,0.0,21,0.00,,---,6.89,VWS V13.01,2013-06-11 17:40:00,
2013-06-11 14:00:00,75.0,32.5,29.30,WSW,249,0.0,0.0,21,0.00,,---,6.89,VWS V13.01,2013-06-11 18:00:00,
2013-06-11 14:19:00,76.8,25.7,29.30,SW,232,0.0,4.0,15,0.00,,---,6.89,VWS V13.01,2013-06-11 18:19:00,
2013-06-11 14:40:00,75.6,24.7,29.27,West,262,0.0,4.5,15,0.00,,---,6.89,VWS V13.01,2013-06-11 18:40:00,
2013-06-11 14:59:00,75.6,24.7,29.27,SSW,198,0.0,6.0,15,0.00,,---,6.89,VWS V13.01,2013-06-11 18:59:00,
2013-06-11 15:19:00,73.9,25.0,29.27,WNW,299,0.0,3.1,16,0.00,,---,6.89,VWS V13.01,2013-06-11 19:19:00,
2013-06-11 15:39:00,68.5,38.3,29.30,WNW,284,0.0,8.7,33,0.24,,---,7.13,VWS V13.01,2013-06-11 19:39:00,
2013-06-11 15:59:00,68.7,42.1,29.27,SW,234,0.0,2.7,38,0.31,,---,7.20,VWS V13.01,2013-06-11 19:59:00,
2013-06-11 16:20:00,69.6,43.6,29.27,WSW,255,0.0,3.1,39,0.31,,---,7.20,VWS V13.01,2013-06-11 20:20:00,
2013-06-11 16:39:00,70.2,44.1,29.27,WNW,294,0.0,0.0,39,0.31,,---,7.20,VWS V13.01,2013-06-11 20:39:00,
2013-06-11 17:00:00,72.0,44.3,29.24,West,263,0.0,0.0,37,0.08,,---,7.20,VWS V13.01,2013-06-11 21:00:00,
2013-06-11 17:20:00,72.5,41.8,29.24,West,265,0.0,0.0,33,0.00,,---,7.20,VWS V13.01,2013-06-11 21:20:00,
2013-06-11 17:40:00,71.1,41.3,29.24,SSE,149,0.0,0.0,34,0.20,,---,7.40,VWS V13.01,2013-06-11 21:40:00,
2013-06-11 18:00:00,70.0,41.8,29.24,WNW,289,0.0,4.5,36,0.28,,---,7.48,VWS V13.01,2013-06-11 22:00:00,
2013-06-11 18:19:00,68.7,40.0,29.27,WNW,288,0.0,3.1,35,0.28,,---,7.48,VWS V13.01,2013-06-11 22:19:00,
2013-06-11 18:40:00,69.3,39.7,29.24,WNW,295,0.0,4.7,34,0.28,,---,7.48,VWS V13.01,2013-06-11 22:40:00,
2013-06-11 18:59:00,69.3,39.0,29.27,WNW,293,0.0,0.0,33,0.08,,---,7.48,VWS V13.01,2013-06-11 22:59:00,
2013-06-11 19:19:00,69.1,38.0,29.27,NNW,348,0.0,0.0,32,0.00,,---,7.48,VWS V13.01,2013-06-11 23:19:00,
2013-06-11 19:39:00,68.5,37.5,29.27,West,262,0.0,0.0,32,0.00,,---,7.48,VWS V13.01,2013-06-11 23:39:00,
2013-06-11 20:00:00,68.0,35.4,29.27,WNW,298,0.0,3.6,30,0.00,,---,7.48,VWS V13.01,2013-06-12 00:00:00,
2013-06-11 20:20:00,67.5,29.4,29.27,WNW,283,0.0,4.0,24,0.00,,---,7.48,VWS V13.01,2013-06-12 00:20:00,
2013-06-11 20:39:00,67.3,28.2,29.30,WNW,293,0.0,6.9,23,0.00,,---,7.48,VWS V13.01,2013-06-12 00:39:00,
2013-06-11 20:59:00,66.9,29.0,29.30,NW,311,0.0,2.7,24,0.00,,---,7.48,VWS V13.01,2013-06-12 00:59:00,
2013-06-11 21:20:00,66.7,27.8,29.30,WSW,255,0.0,0.0,23,0.00,,---,7.48,VWS V13.01,2013-06-12 01:20:00,
2013-06-11 21:40:00,66.6,27.6,29.30,WNW,300,0.0,2.7,23,0.00,,---,7.48,VWS V13.01,2013-06-12 01:40:00,
2013-06-11 22:00:00,66.2,27.3,29.33,SW,234,0.0,0.0,23,0.00,,---,7.48,VWS V13.01,2013-06-12 02:00:00,
2013-06-11 22:20:00,65.8,27.0,29.30,West,280,0.0,0.0,23,0.00,,---,7.48,VWS V13.01,2013-06-12 02:20:00,
2013-06-11 22:39:00,65.7,26.9,29.30,WNW,292,9.8,9.8,23,0.00,,---,7.48,VWS V13.01,2013-06-12 02:39:00,
2013-06-11 22:59:00,65.5,23.4,29.33,NW,304,0.0,9.8,20,0.00,,---,7.48,VWS V13.01,2013-06-12 02:59:00,
2013-06-11 23:19:00,65.3,23.2,29.33,West,276,0.0,4.0,20,0.00,,---,7.48,VWS V13.01,2013-06-12 03:19:00,
2013-06-11 23:40:00,64.8,22.8,29.33,West,268,0.0,0.0,20,0.00,,---,7.48,VWS V13.01,2013-06-12 03:40:00,